createdAt,value
2023-03-12T00:04:16.154Z,17.00
2023-03-12T00:09:18.263Z,17.00
2023-03-12T00:14:20.654Z,17.01
2023-03-12T00:19:22.866Z,17.02
2023-03-12T00:24:24.933Z,17.02
2023-03-12T00:29:26.731Z,17.03
2023-03-12T00:34:28.707Z,17.04
2023-03-12T00:39:30.739Z,17.00
2023-03-12T00:44:32.621Z,17.02
2023-03-12T00:49:34.296Z,17.05
2023-03-12T00:54:36.292Z,17.04
2023-03-12T00:59:40.697Z,17.03
2023-03-12T01:04:42.557Z,17.04
2023-03-12T01:09:44.311Z,17.00
2023-03-12T01:14:46.143Z,17.01
2023-03-12T01:19:48.028Z,17.00
2023-03-12T01:24:50.153Z,17.03
2023-03-12T01:29:52.060Z,17.06
2023-03-12T01:34:53.945Z,17.01
2023-03-12T01:39:56.239Z,17.04
2023-03-12T01:45:03.374Z,17.03
2023-03-12T01:50:06.082Z,17.03
2023-03-12T01:55:15.105Z,17.03
2023-03-12T02:00:20.866Z,17.04
2023-03-12T02:05:26.235Z,17.07
2023-03-12T02:10:28.144Z,17.04
2023-03-12T02:15:30.461Z,17.03
2023-03-12T02:21:05.380Z,17.03
2023-03-12T02:26:08.314Z,17.00
2023-03-12T02:31:14.775Z,16.97
2023-03-12T02:36:16.729Z,17.06
2023-03-12T02:41:46.259Z,16.98
2023-03-12T02:46:51.797Z,17.05
2023-03-12T02:51:54.201Z,17.03
2023-03-12T02:56:56.380Z,17.02
2023-03-12T03:02:00.876Z,17.04
2023-03-12T03:07:02.814Z,17.05
2023-03-12T03:12:04.969Z,17.04
2023-03-12T03:17:06.873Z,17.01
2023-03-12T03:22:08.790Z,17.05
2023-03-12T03:27:10.755Z,17.01
2023-03-12T03:32:13.215Z,17.06
2023-03-12T03:37:15.213Z,17.01
2023-03-12T03:42:17.361Z,17.01
2023-03-12T03:47:19.572Z,17.05
2023-03-12T03:52:21.512Z,17.04
2023-03-12T03:57:23.954Z,17.00
2023-03-12T04:02:26.352Z,16.99
2023-03-12T04:07:28.931Z,17.03
2023-03-12T04:12:30.860Z,17.00
2023-03-12T04:17:32.777Z,17.01
2023-03-12T04:22:34.771Z,17.01
2023-03-12T04:27:36.637Z,16.98
2023-03-12T04:32:38.698Z,17.03
2023-03-12T04:37:40.613Z,17.00
2023-03-12T04:42:42.632Z,17.04
2023-03-12T04:47:44.762Z,17.00
2023-03-12T04:52:46.710Z,17.00
2023-03-12T04:57:48.697Z,17.00
2023-03-12T05:02:50.705Z,17.02
2023-03-12T05:07:52.743Z,17.05
2023-03-12T05:12:54.665Z,17.06
2023-03-12T05:17:56.778Z,17.04
2023-03-12T05:22:58.563Z,17.05
2023-03-12T05:28:00.568Z,16.99
2023-03-12T05:33:02.711Z,17.00
2023-03-12T05:38:04.614Z,17.00
2023-03-12T05:43:06.745Z,17.02
2023-03-12T05:48:08.825Z,17.00
2023-03-12T05:53:11.594Z,17.01
2023-03-12T05:58:13.725Z,17.05
2023-03-12T06:03:16.471Z,17.03
2023-03-12T06:08:18.483Z,17.03
2023-03-12T06:13:20.613Z,17.01
2023-03-12T06:18:22.630Z,17.02
2023-03-12T06:23:24.530Z,17.01
2023-03-12T06:28:26.619Z,16.99
2023-03-12T06:33:28.900Z,17.03
2023-03-12T06:38:31.180Z,17.04
2023-03-12T06:43:35.168Z,17.01
2023-03-12T06:48:37.586Z,17.01
2023-03-12T06:53:42.137Z,17.00
2023-03-12T06:58:44.499Z,17.02
2023-03-12T07:03:46.353Z,17.01
2023-03-12T07:08:48.945Z,17.01
2023-03-12T07:13:51.814Z,17.01
2023-03-12T07:18:53.993Z,16.97
2023-03-12T07:23:55.963Z,16.99
2023-03-12T07:28:58.012Z,16.98
2023-03-12T07:34:00.215Z,16.98
2023-03-12T07:39:02.061Z,16.98
2023-03-12T07:44:04.319Z,16.98
2023-03-12T07:49:06.308Z,17.00
2023-03-12T07:54:08.092Z,17.01
2023-03-12T07:59:10.363Z,17.03
2023-03-12T08:04:12.426Z,17.00
2023-03-12T08:09:14.676Z,16.98
2023-03-12T08:14:16.652Z,16.98
2023-03-12T08:19:18.969Z,16.96
2023-03-12T08:24:22.119Z,16.98
2023-03-12T08:29:24.072Z,17.00
2023-03-12T08:34:26.194Z,16.98
2023-03-12T08:39:28.252Z,16.90
2023-03-12T08:44:32.857Z,17.06
2023-03-12T08:49:34.712Z,17.01
2023-03-12T08:54:36.685Z,17.07
2023-03-12T08:59:38.924Z,17.07
2023-03-12T09:04:40.893Z,16.99
2023-03-12T09:09:43.055Z,16.92
2023-03-12T09:20:10.189Z,16.90
2023-03-12T09:25:12.630Z,17.12
2023-03-12T09:30:17.910Z,17.03
2023-03-12T09:35:20.051Z,17.09
2023-03-12T09:40:25.831Z,17.04
2023-03-12T09:45:38.348Z,17.13
2023-03-12T09:50:44.026Z,17.13
2023-03-12T09:55:50.007Z,17.13
2023-03-12T10:01:00.299Z,17.15
2023-03-12T10:06:21.937Z,16.97
2023-03-12T10:11:36.721Z,17.24
2023-03-12T10:16:56.344Z,17.27
2023-03-12T10:22:23.010Z,17.23
2023-03-12T10:27:30.436Z,17.21
2023-03-12T10:32:42.583Z,17.25
2023-03-12T10:37:47.961Z,16.87
2023-03-12T10:42:50.539Z,16.94
2023-03-12T10:47:57.557Z,17.07
2023-03-12T10:53:16.244Z,16.84
2023-03-12T10:58:32.450Z,17.04
2023-03-12T11:03:34.324Z,17.09
2023-03-12T11:08:38.162Z,17.03
2023-03-12T11:13:42.180Z,17.02
2023-03-12T11:19:01.738Z,16.99
2023-03-12T11:24:10.077Z,16.98
2023-03-12T11:29:23.618Z,16.94
2023-03-12T11:34:29.911Z,16.95
2023-03-12T11:39:48.770Z,16.99
2023-03-12T11:45:05.136Z,16.94
2023-03-12T11:50:19.052Z,17.06
2023-03-12T11:55:39.466Z,17.11
2023-03-12T12:01:04.112Z,17.07
2023-03-12T12:06:17.508Z,17.14
2023-03-12T12:11:34.733Z,17.11
2023-03-12T12:16:59.654Z,17.15
2023-03-12T12:22:29.686Z,17.21
2023-03-12T12:27:54.602Z,17.09
2023-03-12T12:33:11.490Z,16.96
2023-03-12T12:38:30.721Z,16.96
2023-03-12T12:43:47.819Z,16.97
2023-03-12T12:48:59.582Z,16.96
2023-03-12T12:54:19.499Z,17.18
2023-03-12T12:59:37.957Z,17.17
2023-03-12T13:04:40.662Z,17.24
2023-03-12T13:10:06.036Z,17.17
2023-03-12T13:15:29.757Z,17.17
2023-03-12T13:20:45.451Z,17.26
2023-03-12T13:26:17.745Z,17.29
2023-03-12T13:31:29.105Z,17.34
2023-03-12T13:36:33.857Z,17.42
2023-03-12T13:41:39.875Z,17.41
2023-03-12T13:46:44.586Z,17.41
2023-03-12T13:51:55.857Z,17.48
2023-03-12T13:57:05.289Z,17.51
2023-03-12T14:02:20.890Z,17.59
2023-03-12T14:07:51.940Z,17.42
2023-03-12T14:13:12.838Z,17.44
2023-03-12T14:18:21.098Z,17.43
2023-03-12T14:23:28.884Z,17.45
2023-03-12T14:28:37.948Z,17.43
2023-03-12T14:33:56.334Z,17.48
2023-03-12T14:39:18.488Z,17.50
2023-03-12T14:44:26.548Z,17.50
2023-03-12T14:49:30.315Z,17.42
2023-03-12T14:54:32.188Z,17.54
2023-03-12T14:59:37.830Z,17.50
2023-03-12T15:04:41.042Z,17.51
2023-03-12T15:09:46.063Z,17.53
2023-03-12T15:14:50.994Z,17.34
2023-03-12T15:19:55.385Z,17.46
2023-03-12T15:25:02.477Z,17.57
2023-03-12T15:30:23.953Z,17.57
2023-03-12T15:35:26.840Z,17.31
2023-03-12T15:40:32.217Z,17.34
2023-03-12T15:45:39.491Z,17.32
2023-03-12T15:50:44.288Z,17.20
2023-03-12T15:56:17.465Z,17.36
2023-03-12T16:01:24.304Z,17.33
2023-03-12T16:06:29.925Z,17.44
2023-03-12T16:11:36.075Z,17.47
2023-03-12T16:16:37.955Z,17.59
2023-03-12T16:21:40.107Z,17.47
2023-03-12T16:26:49.023Z,17.40
2023-03-12T16:31:55.128Z,17.40
2023-03-12T16:36:57.996Z,17.32
2023-03-12T16:42:02.071Z,17.30
2023-03-12T16:47:04.292Z,17.45
2023-03-12T16:52:20.603Z,17.43
2023-03-12T16:57:46.090Z,17.38
2023-03-12T17:02:48.964Z,17.32
2023-03-12T17:07:50.968Z,17.44
2023-03-12T17:12:53.472Z,17.50
2023-03-12T17:17:55.918Z,17.53
2023-03-12T17:22:58.337Z,17.41
2023-03-12T17:28:01.159Z,17.47
2023-03-12T17:33:06.782Z,17.55
2023-03-12T17:38:09.270Z,17.69
2023-03-12T17:43:12.611Z,17.60
2023-03-12T17:48:14.680Z,17.45
2023-03-12T17:53:16.973Z,17.34
2023-03-12T17:58:18.833Z,17.28
2023-03-12T18:03:20.682Z,17.43
2023-03-12T18:08:22.995Z,17.45
2023-03-12T18:13:25.201Z,17.45
2023-03-12T18:18:27.471Z,17.62
2023-03-12T18:23:29.365Z,17.53
2023-03-12T18:28:31.251Z,17.53
2023-03-12T18:33:33.196Z,17.56
2023-03-12T18:38:35.757Z,17.54
2023-03-12T18:43:38.661Z,17.72
2023-03-12T18:48:43.586Z,17.64
2023-03-12T18:53:46.507Z,17.44
2023-03-12T18:58:48.785Z,17.47
2023-03-12T19:03:50.731Z,17.33
2023-03-12T19:08:52.871Z,17.46
2023-03-12T19:13:54.940Z,17.41
2023-03-12T19:18:57.075Z,17.42
2023-03-12T19:23:59.095Z,17.48
2023-03-12T19:29:01.044Z,17.53
2023-03-12T19:34:03.043Z,17.42
2023-03-12T19:39:11.949Z,17.48
2023-03-12T19:44:20.804Z,17.43
2023-03-12T19:49:22.694Z,17.45
2023-03-12T19:54:24.745Z,17.49
2023-03-12T19:59:26.721Z,17.51
2023-03-12T20:04:28.917Z,17.53
2023-03-12T20:09:31.295Z,17.40
2023-03-12T20:14:33.396Z,17.50
2023-03-12T20:19:35.412Z,17.50
2023-03-12T20:24:37.418Z,17.48
2023-03-12T20:29:39.602Z,17.48
2023-03-12T20:34:41.563Z,17.52
2023-03-12T20:39:43.935Z,17.46
2023-03-12T20:44:45.884Z,17.49
2023-03-12T20:49:48.001Z,17.45
2023-03-12T20:54:50.173Z,17.63
2023-03-12T20:59:51.958Z,17.52
2023-03-12T21:04:54.325Z,17.54
2023-03-12T21:09:56.181Z,17.56
2023-03-12T21:15:06.599Z,17.54
2023-03-12T21:20:11.336Z,17.45
2023-03-12T21:25:13.661Z,17.50
2023-03-12T21:30:15.963Z,17.36
2023-03-12T21:35:20.142Z,17.51
2023-03-12T21:40:22.924Z,17.50
2023-03-12T21:45:25.121Z,17.33
2023-03-12T21:50:27.024Z,17.66
2023-03-12T21:55:28.834Z,17.74
2023-03-12T22:00:30.972Z,17.27
2023-03-12T22:05:32.927Z,17.30
2023-03-12T22:10:34.979Z,17.47
2023-03-12T22:15:36.913Z,17.53
2023-03-12T22:20:39.075Z,17.71
2023-03-12T22:25:40.995Z,17.74
2023-03-12T22:30:43.716Z,17.78
2023-03-12T22:35:47.579Z,17.66
2023-03-12T22:40:49.624Z,17.74
2023-03-12T22:45:54.825Z,17.83
2023-03-12T22:50:56.832Z,17.82
2023-03-12T22:56:04.145Z,17.87
2023-03-12T23:01:12.228Z,17.81
2023-03-12T23:06:19.521Z,17.87
2023-03-12T23:11:21.942Z,17.78
2023-03-12T23:16:25.723Z,17.79
2023-03-12T23:21:27.978Z,17.84
2023-03-12T23:26:30.985Z,17.81
2023-03-12T23:31:33.155Z,17.82
2023-03-12T23:36:34.990Z,17.81
2023-03-12T23:41:37.978Z,17.88
2023-03-12T23:46:40.078Z,17.84
2023-03-12T23:51:42.229Z,17.80
2023-03-12T23:56:44.124Z,17.85
